createdAt,value
2019-01-30T00:01:28.048Z,20.13
2019-01-30T00:03:58.570Z,21.50
2019-01-30T00:06:31.310Z,20.13
2019-01-30T00:09:02.348Z,16.80
2019-01-30T00:11:33.177Z,31.27
2019-01-30T00:14:03.557Z,20.97
2019-01-30T00:16:33.768Z,17.40
2019-01-30T00:19:04.015Z,21.77
2019-01-30T00:21:38.155Z,23.37
2019-01-30T00:24:09.092Z,22.67
2019-01-30T00:26:45.627Z,23.33
2019-01-30T00:29:16.117Z,24.90
2019-01-30T00:31:55.272Z,29.40
2019-01-30T00:34:29.345Z,21.40
2019-01-30T00:36:59.473Z,27.07
2019-01-30T00:39:29.528Z,17.50
2019-01-30T00:41:59.702Z,21.60
2019-01-30T00:44:30.025Z,19.10
2019-01-30T00:47:01.316Z,15.90
2019-01-30T00:49:31.487Z,20.80
2019-01-30T00:52:03.608Z,15.80
2019-01-30T00:54:37.332Z,24.43
2019-01-30T00:57:07.522Z,30.23
2019-01-30T00:59:37.741Z,30.60
2019-01-30T01:02:08.147Z,22.80
2019-01-30T01:04:40.928Z,17.20
2019-01-30T01:07:11.056Z,20.47
2019-01-30T01:09:41.285Z,15.13
2019-01-30T01:12:11.696Z,11.50
2019-01-30T01:14:42.568Z,25.90
2019-01-30T01:17:12.852Z,17.60
2019-01-30T01:19:43.525Z,18.87
2019-01-30T01:22:13.597Z,30.57
2019-01-30T01:24:44.039Z,14.90
2019-01-30T01:27:14.153Z,19.50
2019-01-30T01:29:44.290Z,18.00
2019-01-30T01:32:16.136Z,16.77
2019-01-30T01:34:47.200Z,16.37
2019-01-30T01:37:17.745Z,12.83
2019-01-30T01:39:51.028Z,11.70
2019-01-30T01:42:21.364Z,23.30
2019-01-30T01:44:51.539Z,21.87
2019-01-30T01:47:21.778Z,15.20
2019-01-30T01:49:51.784Z,12.00
2019-01-30T01:52:22.001Z,19.60
2019-01-30T01:54:52.771Z,14.60
2019-01-30T01:57:22.917Z,18.53
2019-01-30T01:59:53.453Z,17.07
2019-01-30T02:02:28.511Z,19.93
2019-01-30T02:04:58.866Z,15.00
2019-01-30T02:07:30.105Z,15.03
2019-01-30T02:10:13.540Z,15.90
2019-01-30T02:12:44.358Z,15.53
2019-01-30T02:15:19.208Z,15.53
2019-01-30T02:17:50.966Z,21.93
2019-01-30T02:20:23.721Z,18.83
2019-01-30T02:22:54.447Z,13.07
2019-01-30T02:25:25.041Z,16.20
2019-01-30T02:27:56.004Z,21.40
2019-01-30T02:30:27.920Z,17.30
2019-01-30T02:32:58.106Z,15.10
2019-01-30T02:35:28.779Z,13.40
2019-01-30T02:37:59.067Z,15.50
2019-01-30T02:40:29.289Z,11.43
2019-01-30T02:42:59.612Z,13.00
2019-01-30T02:45:30.990Z,16.70
2019-01-30T02:48:01.438Z,13.17
2019-01-30T02:50:35.000Z,27.97
2019-01-30T02:53:06.559Z,19.13
2019-01-30T02:55:36.739Z,19.37
2019-01-30T02:58:06.968Z,16.43
2019-01-30T03:00:37.589Z,14.23
2019-01-30T03:03:14.955Z,22.37
2019-01-30T03:05:50.133Z,16.10
2019-01-30T03:08:26.239Z,13.93
2019-01-30T03:10:56.556Z,21.73
2019-01-30T03:13:26.594Z,13.83
2019-01-30T03:15:56.687Z,17.73
2019-01-30T03:18:27.801Z,14.00
2019-01-30T03:20:57.795Z,13.60
2019-01-30T03:23:27.798Z,14.47
2019-01-30T03:25:57.840Z,16.13
2019-01-30T03:28:27.966Z,13.03
2019-01-30T03:31:15.572Z,19.53
2019-01-30T03:33:32.156Z,11.30
2019-01-30T03:36:02.239Z,17.33
2019-01-30T03:38:32.467Z,15.20
2019-01-30T03:41:02.594Z,14.23
2019-01-30T03:43:33.062Z,11.73
2019-01-30T03:46:03.464Z,11.17
2019-01-30T03:48:35.405Z,15.77
2019-01-30T03:51:06.438Z,14.20
2019-01-30T03:53:36.474Z,13.10
2019-01-30T03:56:08.872Z,16.70
2019-01-30T03:58:39.016Z,14.37
2019-01-30T04:01:09.216Z,11.33
2019-01-30T04:03:39.562Z,17.77
2019-01-30T04:06:10.499Z,10.83
2019-01-30T04:08:40.777Z,16.37
2019-01-30T04:11:17.170Z,18.50
2019-01-30T04:13:50.946Z,18.43
2019-01-30T04:16:21.023Z,19.63
2019-01-30T04:18:51.013Z,15.83
2019-01-30T04:21:21.228Z,14.73
2019-01-30T04:23:52.136Z,18.73
2019-01-30T04:26:24.211Z,15.00
2019-01-30T04:28:54.509Z,15.63
2019-01-30T04:31:25.026Z,13.17
2019-01-30T04:33:55.209Z,10.83
2019-01-30T04:36:26.003Z,24.70
2019-01-30T04:38:56.283Z,18.90
2019-01-30T04:41:26.248Z,15.70
2019-01-30T04:43:56.476Z,15.23
2019-01-30T04:46:26.784Z,16.87
2019-01-30T04:48:57.156Z,16.77
2019-01-30T04:51:27.192Z,13.27
2019-01-30T04:53:57.273Z,15.83
2019-01-30T04:56:27.628Z,24.37
2019-01-30T04:58:57.625Z,16.43
2019-01-30T05:01:27.675Z,17.00
2019-01-30T05:03:57.940Z,15.35
2019-01-30T05:06:28.323Z,11.33
2019-01-30T05:08:58.478Z,15.63
2019-01-30T05:11:28.602Z,28.63
2019-01-30T05:14:01.365Z,10.23
2019-01-30T05:16:30.883Z,15.00
2019-01-30T05:19:01.429Z,14.73
2019-01-30T05:21:31.551Z,13.03
2019-01-30T05:24:03.530Z,20.80
2019-01-30T05:26:33.569Z,20.53
2019-01-30T05:29:10.951Z,21.33
2019-01-30T05:31:42.579Z,20.83
2019-01-30T05:34:12.779Z,15.63
2019-01-30T05:36:44.906Z,12.10
2019-01-30T05:39:15.054Z,12.77
2019-01-30T05:41:45.320Z,16.80
2019-01-30T05:44:15.421Z,23.93
2019-01-30T05:46:46.009Z,14.40
2019-01-30T05:49:16.680Z,25.53
2019-01-30T05:51:46.665Z,25.17
2019-01-30T05:54:16.917Z,17.30
2019-01-30T05:56:47.073Z,16.13
2019-01-30T05:59:17.051Z,13.33
2019-01-30T06:01:47.212Z,11.87
2019-01-30T06:04:17.900Z,15.23
2019-01-30T06:06:48.268Z,12.53
2019-01-30T06:09:21.223Z,21.90
2019-01-30T06:11:51.274Z,11.80
2019-01-30T06:14:21.587Z,24.73
2019-01-30T06:16:54.763Z,17.87
2019-01-30T06:19:33.099Z,17.23
2019-01-30T06:22:07.734Z,11.73
2019-01-30T06:24:43.051Z,24.23
2019-01-30T06:27:13.223Z,14.83
2019-01-30T06:29:43.596Z,13.90
2019-01-30T06:32:21.749Z,12.17
2019-01-30T06:34:52.636Z,12.63
2019-01-30T06:37:24.185Z,17.13
2019-01-30T06:39:54.349Z,19.93
2019-01-30T06:42:24.485Z,20.90
2019-01-30T06:44:54.670Z,26.27
2019-01-30T06:47:24.866Z,23.90
2019-01-30T06:49:55.359Z,22.87
2019-01-30T06:52:25.531Z,23.83
2019-01-30T06:54:57.023Z,24.67
2019-01-30T06:57:27.293Z,25.70
2019-01-30T06:59:58.063Z,29.70
2019-01-30T07:02:32.266Z,30.10
2019-01-30T07:05:00.302Z,33.95
2019-01-30T07:07:30.684Z,29.37
2019-01-30T07:10:07.016Z,31.65
2019-01-30T07:12:37.750Z,28.67
2019-01-30T07:15:09.445Z,45.80
2019-01-30T07:17:43.373Z,32.55
2019-01-30T07:20:19.533Z,29.85
2019-01-30T07:22:49.719Z,33.60
2019-01-30T07:25:21.149Z,32.83
2019-01-30T07:27:51.760Z,38.88
2019-01-30T07:30:38.104Z,39.30
2019-01-30T07:33:14.807Z,40.03
2019-01-30T07:35:48.911Z,27.70
2019-01-30T07:38:26.802Z,53.10
2019-01-30T07:41:01.700Z,37.03
2019-01-30T07:43:31.720Z,25.35
2019-01-30T07:46:03.681Z,34.38
2019-01-30T07:48:36.352Z,29.65
2019-01-30T07:51:06.962Z,33.33
2019-01-30T07:53:40.797Z,36.77
2019-01-30T07:56:13.141Z,48.30
2019-01-30T07:58:44.063Z,44.42
2019-01-30T08:01:16.863Z,33.08
2019-01-30T08:03:47.764Z,44.40
2019-01-30T08:06:19.614Z,37.63
2019-01-30T08:08:51.282Z,37.05
2019-01-30T08:11:21.757Z,34.13
2019-01-30T08:13:56.749Z,46.18
2019-01-30T08:16:27.272Z,36.95
2019-01-30T08:18:59.035Z,43.28
2019-01-30T08:21:29.243Z,33.67
2019-01-30T08:23:59.648Z,38.70
2019-01-30T08:26:32.865Z,46.08
2019-01-30T08:29:03.435Z,35.05
2019-01-30T08:31:33.964Z,97.75
2019-01-30T08:34:07.211Z,41.42
2019-01-30T08:36:41.797Z,47.27
2019-01-30T08:39:17.094Z,35.73
2019-01-30T08:41:51.159Z,33.70
2019-01-30T08:44:21.939Z,39.70
2019-01-30T08:46:52.553Z,51.98
2019-01-30T08:49:24.722Z,43.65
2019-01-30T08:51:55.040Z,34.65
2019-01-30T08:54:25.457Z,43.40
2019-01-30T08:56:56.818Z,43.55
2019-01-30T08:59:29.616Z,33.43
2019-01-30T09:02:00.252Z,45.60
2019-01-30T09:04:31.663Z,37.57
2019-01-30T09:07:04.485Z,38.40
2019-01-30T09:09:34.825Z,27.77
2019-01-30T09:12:05.392Z,37.00
2019-01-30T09:14:38.878Z,43.00
2019-01-30T09:17:14.912Z,42.43
2019-01-30T09:19:48.131Z,27.73
2019-01-30T09:22:18.299Z,30.02
2019-01-30T09:24:49.188Z,34.63
2019-01-30T09:27:20.194Z,29.90
2019-01-30T09:29:56.029Z,29.57
2019-01-30T09:32:26.404Z,30.03
2019-01-30T09:35:01.434Z,34.43
2019-01-30T09:37:33.663Z,49.10
2019-01-30T09:40:07.249Z,44.70
2019-01-30T09:42:40.783Z,43.03
2019-01-30T09:45:13.262Z,36.23
2019-01-30T09:47:43.646Z,39.13
2019-01-30T09:50:19.254Z,31.90
2019-01-30T09:52:51.687Z,39.47
2019-01-30T09:55:22.757Z,29.63
2019-01-30T09:57:56.089Z,43.07
2019-01-30T10:00:32.004Z,31.43
2019-01-30T10:03:05.456Z,45.28
2019-01-30T10:05:41.323Z,30.03
2019-01-30T10:08:11.717Z,36.27
2019-01-30T10:10:42.688Z,33.37
2019-01-30T10:13:16.762Z,36.33
2019-01-30T10:15:49.364Z,29.30
2019-01-30T10:18:23.748Z,52.77
2019-01-30T10:20:57.416Z,36.70
2019-01-30T10:23:29.133Z,41.07
2019-01-30T10:26:00.218Z,47.07
2019-01-30T10:28:33.175Z,53.67
2019-01-30T10:31:10.259Z,39.50
2019-01-30T10:33:46.639Z,40.93
2019-01-30T10:36:29.685Z,36.97
2019-01-30T10:39:02.773Z,36.57
2019-01-30T10:41:40.504Z,30.47
2019-01-30T10:44:13.408Z,39.50
2019-01-30T10:46:48.280Z,32.80
2019-01-30T10:49:19.775Z,43.67
2019-01-30T10:51:56.585Z,46.00
2019-01-30T10:54:31.340Z,37.30
2019-01-30T10:57:03.089Z,44.77
2019-01-30T10:59:43.392Z,43.73
2019-01-30T11:02:19.656Z,43.33
2019-01-30T11:04:55.165Z,46.23
2019-01-30T11:07:28.043Z,36.33
2019-01-30T11:10:02.930Z,42.40
2019-01-30T11:12:37.745Z,32.47
2019-01-30T11:15:12.855Z,39.40
2019-01-30T11:17:43.987Z,41.60
2019-01-30T11:20:16.690Z,36.00
2019-01-30T11:22:47.252Z,40.40
2019-01-30T11:25:32.530Z,52.97
2019-01-30T11:28:03.355Z,37.27
2019-01-30T11:30:37.214Z,30.23
2019-01-30T11:33:09.427Z,41.20
2019-01-30T11:35:41.186Z,39.00
2019-01-30T11:38:12.466Z,35.03
2019-01-30T11:40:46.646Z,45.27
2019-01-30T11:43:17.962Z,39.20
2019-01-30T11:45:50.293Z,39.80
2019-01-30T11:48:22.258Z,35.97
2019-01-30T11:50:53.065Z,41.20
2019-01-30T11:53:29.398Z,34.63
2019-01-30T11:56:06.301Z,40.10
2019-01-30T11:58:37.103Z,33.97
2019-01-30T12:01:08.779Z,30.50
2019-01-30T12:03:40.301Z,43.23
2019-01-30T12:06:16.396Z,43.00
2019-01-30T12:08:56.208Z,61.77
2019-01-30T12:11:27.058Z,57.73
2019-01-30T12:13:58.317Z,42.77
2019-01-30T12:16:28.801Z,38.33
2019-01-30T12:19:05.081Z,38.60
2019-01-30T12:21:38.868Z,62.83
2019-01-30T12:24:11.427Z,86.50
2019-01-30T12:26:43.216Z,41.80
2019-01-30T12:29:13.950Z,54.00
2019-01-30T12:31:49.639Z,40.40
2019-01-30T12:34:28.169Z,38.17
2019-01-30T12:36:52.341Z,123.37
2019-01-30T12:39:24.870Z,36.87
2019-01-30T12:41:59.889Z,47.87
2019-01-30T12:44:30.655Z,39.13
2019-01-30T12:47:05.917Z,48.03
2019-01-30T12:49:38.326Z,59.20
2019-01-30T12:52:09.899Z,40.60
2019-01-30T12:54:42.981Z,37.67
2019-01-30T12:57:22.780Z,39.83
2019-01-30T12:59:56.895Z,41.37
2019-01-30T13:02:27.896Z,42.10
2019-01-30T13:04:58.265Z,41.03
2019-01-30T13:07:28.590Z,39.33
2019-01-30T13:10:02.054Z,43.70
2019-01-30T13:12:32.680Z,51.53
2019-01-30T13:15:03.518Z,34.10
2019-01-30T13:17:34.217Z,43.60
2019-01-30T13:20:08.163Z,44.57
2019-01-30T13:22:38.419Z,73.53
2019-01-30T13:25:09.565Z,45.97
2019-01-30T13:27:39.902Z,52.07
2019-01-30T13:30:34.037Z,48.60
2019-01-30T13:33:05.676Z,55.13
2019-01-30T13:35:37.663Z,74.63
2019-01-30T13:38:12.785Z,56.17
2019-01-30T13:40:46.810Z,50.87
2019-01-30T13:43:17.563Z,49.57
2019-01-30T13:45:48.591Z,51.93
2019-01-30T13:48:24.503Z,58.27
2019-01-30T13:51:04.064Z,79.70
2019-01-30T13:53:38.715Z,78.83
2019-01-30T13:56:09.567Z,81.30
2019-01-30T13:58:52.227Z,62.83
2019-01-30T14:01:25.850Z,63.23
2019-01-30T14:04:01.312Z,72.17
2019-01-30T14:06:40.102Z,59.75
2019-01-30T14:09:11.423Z,64.95
2019-01-30T14:11:53.374Z,65.50
2019-01-30T14:14:25.632Z,69.97
2019-01-30T14:16:59.016Z,99.28
2019-01-30T14:19:32.260Z,73.27
2019-01-30T14:22:07.506Z,67.90
2019-01-30T14:24:38.301Z,68.85
2019-01-30T14:27:10.997Z,101.73
2019-01-30T14:29:46.412Z,78.37
2019-01-30T14:32:23.808Z,78.85
2019-01-30T14:34:53.977Z,70.70
2019-01-30T14:37:27.890Z,82.78
2019-01-30T14:40:01.313Z,86.35
2019-01-30T14:42:33.923Z,78.10
2019-01-30T14:45:18.180Z,80.00
2019-01-30T14:48:04.719Z,81.22
2019-01-30T14:50:40.756Z,257.67
2019-01-30T14:53:12.625Z,100.35
2019-01-30T14:55:46.115Z,73.12
2019-01-30T14:58:24.912Z,73.17
2019-01-30T15:00:58.024Z,71.70
2019-01-30T15:03:35.110Z,77.97
2019-01-30T15:06:07.372Z,72.47
2019-01-30T15:08:40.419Z,73.50
2019-01-30T15:11:20.753Z,77.53
2019-01-30T15:16:21.222Z,81.67
2019-01-30T15:18:52.029Z,77.00
2019-01-30T15:21:23.254Z,70.20
2019-01-30T15:23:55.178Z,73.10
2019-01-30T15:26:29.421Z,194.13
2019-01-30T15:29:01.560Z,71.40
2019-01-30T15:31:32.508Z,80.20
2019-01-30T15:34:12.479Z,78.83
2019-01-30T15:36:47.852Z,80.07
2019-01-30T15:39:19.872Z,61.33
2019-01-30T15:41:50.338Z,63.80
2019-01-30T15:44:29.695Z,73.52
2019-01-30T15:47:01.105Z,69.72
2019-01-30T15:49:36.719Z,77.17
2019-01-30T15:52:21.916Z,101.60
2019-01-30T15:54:54.393Z,77.47
2019-01-30T15:57:30.891Z,89.58
2019-01-30T16:00:09.301Z,88.97
2019-01-30T16:02:48.299Z,80.50
2019-01-30T16:05:27.620Z,78.33
2019-01-30T16:08:05.713Z,81.55
2019-01-30T16:10:46.892Z,95.40
2019-01-30T16:13:21.050Z,81.65
2019-01-30T16:16:17.477Z,90.65
2019-01-30T16:18:55.012Z,83.35
2019-01-30T16:21:26.824Z,133.82
2019-01-30T16:24:00.729Z,106.85
2019-01-30T16:26:34.679Z,103.80
2019-01-30T16:29:06.909Z,108.35
2019-01-30T16:31:50.230Z,97.70
2019-01-30T16:34:28.299Z,114.00
2019-01-30T16:37:01.956Z,117.97
2019-01-30T16:39:33.280Z,114.82
2019-01-30T16:42:24.511Z,108.52
2019-01-30T16:45:05.416Z,114.45
2019-01-30T16:47:37.121Z,111.08
2019-01-30T16:50:13.814Z,135.48
2019-01-30T16:52:48.234Z,146.82
2019-01-30T16:55:30.619Z,130.37
2019-01-30T16:58:01.896Z,142.53
2019-01-30T17:00:34.146Z,155.37
2019-01-30T17:03:08.097Z,157.35
2019-01-30T17:05:40.286Z,157.40
2019-01-30T17:08:20.252Z,155.43
2019-01-30T17:11:02.963Z,160.22
2019-01-30T17:13:37.393Z,159.90
2019-01-30T17:16:17.685Z,173.95
2019-01-30T17:18:52.804Z,179.77
2019-01-30T17:21:23.683Z,173.82
2019-01-30T17:24:19.602Z,148.67
2019-01-30T17:26:53.363Z,182.25
2019-01-30T17:29:25.283Z,158.60
2019-01-30T17:32:03.192Z,144.53
2019-01-30T17:34:39.607Z,150.80
2019-01-30T17:37:13.874Z,132.05
2019-01-30T17:39:46.665Z,143.97
2019-01-30T17:42:21.941Z,130.20
2019-01-30T17:44:55.247Z,152.87
2019-01-30T17:47:30.694Z,133.60
2019-01-30T17:50:16.514Z,116.12
2019-01-30T17:53:10.287Z,122.40
2019-01-30T17:55:54.006Z,105.63
2019-01-30T17:58:34.248Z,135.37
2019-01-30T18:01:22.853Z,104.30
2019-01-30T18:04:02.140Z,136.23
2019-01-30T18:06:35.862Z,122.60
2019-01-30T18:09:14.868Z,97.33
2019-01-30T18:11:48.983Z,149.03
2019-01-30T18:14:19.915Z,143.90
2019-01-30T18:16:58.509Z,112.00
2019-01-30T18:19:36.750Z,97.90
2019-01-30T18:22:10.715Z,101.90
2019-01-30T18:24:49.376Z,109.17
2019-01-30T18:27:22.802Z,114.70
2019-01-30T18:29:56.776Z,99.77
2019-01-30T18:32:28.357Z,95.03
2019-01-30T18:35:12.415Z,113.30
2019-01-30T18:37:49.168Z,96.00
2019-01-30T18:40:25.093Z,100.47
2019-01-30T18:43:13.296Z,88.60
2019-01-30T18:45:55.155Z,98.83
2019-01-30T18:48:33.752Z,83.57
2019-01-30T18:51:13.178Z,84.90
2019-01-30T18:53:50.203Z,97.20
2019-01-30T18:56:29.272Z,108.10
2019-01-30T18:59:08.238Z,95.27
2019-01-30T19:01:58.182Z,98.20
2019-01-30T19:04:45.779Z,90.87
2019-01-30T19:07:24.862Z,96.20
2019-01-30T19:10:08.716Z,91.40
2019-01-30T19:12:45.235Z,110.78
2019-01-30T19:15:22.465Z,113.47
2019-01-30T19:18:09.633Z,106.80
2019-01-30T19:20:52.606Z,97.83
2019-01-30T19:23:28.976Z,184.13
2019-01-30T19:26:09.280Z,85.50
2019-01-30T19:28:44.118Z,82.90
2019-01-30T19:31:17.745Z,78.75
2019-01-30T19:33:52.759Z,101.87
2019-01-30T19:36:32.971Z,173.38
2019-01-30T19:39:07.421Z,81.15
2019-01-30T19:41:45.187Z,122.93
2019-01-30T19:44:20.266Z,123.40
2019-01-30T19:47:01.482Z,152.20
2019-01-30T19:49:39.594Z,222.37
2019-01-30T19:52:23.429Z,133.60
2019-01-30T19:55:09.712Z,82.62
2019-01-30T19:57:44.467Z,87.12
2019-01-30T20:00:29.481Z,220.07
2019-01-30T20:03:04.242Z,366.33
2019-01-30T20:05:42.842Z,75.28
2019-01-30T20:08:18.513Z,95.95
2019-01-30T20:10:51.909Z,101.92
2019-01-30T20:13:22.768Z,94.55
2019-01-30T20:15:56.623Z,95.77
2019-01-30T20:18:29.360Z,92.33
2019-01-30T20:21:03.668Z,68.47
2019-01-30T20:23:55.761Z,186.03
2019-01-30T20:26:28.428Z,177.85
2019-01-30T20:29:23.385Z,81.22
2019-01-30T20:32:09.390Z,143.90
2019-01-30T20:34:50.203Z,97.33
2019-01-30T20:37:39.084Z,120.20
2019-01-30T20:40:19.126Z,562.58
2019-01-30T20:42:52.889Z,108.35
2019-01-30T20:45:33.399Z,67.82
2019-01-30T20:48:11.267Z,71.33
2019-01-30T20:50:47.702Z,80.70
2019-01-30T20:53:19.885Z,103.62
2019-01-30T20:55:57.476Z,89.80
2019-01-30T20:58:36.142Z,86.63
2019-01-30T21:01:20.290Z,72.13
2019-01-30T21:04:25.894Z,80.97
2019-01-30T21:06:58.713Z,85.80
2019-01-30T21:09:42.662Z,81.93
2019-01-30T21:12:19.457Z,118.23
2019-01-30T21:14:58.493Z,82.53
2019-01-30T21:17:58.943Z,74.47
2019-01-30T21:20:37.964Z,122.33
2019-01-30T21:23:10.433Z,69.92
2019-01-30T21:25:45.429Z,66.47
2019-01-30T21:28:20.833Z,71.00
2019-01-30T21:30:52.055Z,96.07
2019-01-30T21:33:23.940Z,227.83
2019-01-30T21:36:00.984Z,57.33
2019-01-30T21:38:35.807Z,80.85
2019-01-30T21:41:07.833Z,109.70
2019-01-30T21:43:46.105Z,50.53
2019-01-30T21:46:24.293Z,94.97
2019-01-30T21:49:06.344Z,90.37
2019-01-30T21:54:45.788Z,54.87
2019-01-30T21:57:17.831Z,50.93
2019-01-30T22:00:00.415Z,62.27
2019-01-30T22:02:35.743Z,63.07
2019-01-30T22:05:10.013Z,50.97
2019-01-30T22:07:40.641Z,75.00
2019-01-30T22:10:21.254Z,69.73
2019-01-30T22:13:05.312Z,134.13
2019-01-30T22:15:38.965Z,52.07
2019-01-30T22:18:12.357Z,63.60
2019-01-30T22:20:43.210Z,45.63
2019-01-30T22:23:14.153Z,49.90
2019-01-30T22:25:45.896Z,60.43
2019-01-30T22:28:41.834Z,91.80
2019-01-30T22:31:19.461Z,55.50
2019-01-30T22:34:14.733Z,46.33
2019-01-30T22:36:49.189Z,34.30
2019-01-30T22:39:34.356Z,93.77
2019-01-30T22:42:05.261Z,82.70
2019-01-30T22:44:35.894Z,40.87
2019-01-30T22:47:08.893Z,46.93
2019-01-30T22:49:40.195Z,52.83
2019-01-30T22:52:13.666Z,37.17
2019-01-30T22:54:44.572Z,46.93
2019-01-30T22:57:15.591Z,38.83
2019-01-30T22:59:47.594Z,36.20
2019-01-30T23:02:19.030Z,41.50
2019-01-30T23:05:41.064Z,29.83
2019-01-30T23:08:31.373Z,27.07
2019-01-30T23:11:53.836Z,43.13
2019-01-30T23:14:49.729Z,33.00
2019-01-30T23:18:19.211Z,42.27
2019-01-30T23:20:58.452Z,38.97
2019-01-30T23:24:07.557Z,31.10
2019-01-30T23:27:16.090Z,31.57
2019-01-30T23:30:18.045Z,32.50
2019-01-30T23:33:24.528Z,39.25
2019-01-30T23:36:30.009Z,34.00
2019-01-30T23:39:35.349Z,22.13
2019-01-30T23:42:17.801Z,46.17
2019-01-30T23:45:37.579Z,67.13
2019-01-30T23:48:57.091Z,40.60
2019-01-30T23:52:12.743Z,25.23
2019-01-30T23:55:14.693Z,17.90
2019-01-30T23:58:29.791Z,24.07
